Upper Anton Chico, New Mexico
Current Conditions -  °F | °C
As of 5:53 AM on Friday 24 Oct 2014 (Local Time) from KCQC Reporting Station
Clear Clear  
Wind Chill: 40°   Ceiling: Unl
Heat Index: 46°   Visibility: 10mi
Dew Point: 30°   Wind: 15mph
Humidity: 54%   Direction: 280°W
Pressure: 30.31"   Gusts: NA
Location:  35.086°N, 105.064°W
Report Text: KCQC 241153Z AUTO 28013KT 10SM CLR 08/M01 A3031 RMK AO2 SLP197 T00781011 10094 20072 53000
Loading
Personal Weather Stations






























Interactive Weather Map
Tropical Storm Tracking
New forecast layout! Learn more

10-Day Weather Forecast

Advertisements
Track Severe Weather on mobile